sensor_id;sensor_type;location;lat;lon;timestamp;pressure;altitude;pressure_sealevel;temperature;humidity
17764;BME280;22245;52.832;13.816;2023-03-05T00:00:14;101269.84;;;2.17;67.22
17764;BME280;22245;52.832;13.816;2023-03-05T00:03:35;101261.91;;;2.19;66.81
17764;BME280;22245;52.832;13.816;2023-03-05T00:06:59;101250.47;;;2.20;66.89
17764;BME280;22245;52.832;13.816;2023-03-05T00:10:21;101240.00;;;2.19;67.10
17764;BME280;22245;52.832;13.816;2023-03-05T00:13:42;101234.75;;;2.19;67.79
17764;BME280;22245;52.832;13.816;2023-03-05T00:17:04;101234.84;;;2.17;67.85
17764;BME280;22245;52.832;13.816;2023-03-05T00:20:26;101226.03;;;2.18;68.20
17764;BME280;22245;52.832;13.816;2023-03-05T00:23:50;101237.31;;;2.20;68.43
17764;BME280;22245;52.832;13.816;2023-03-05T00:27:12;101227.66;;;2.21;68.63
17764;BME280;22245;52.832;13.816;2023-03-05T00:30:34;101227.72;;;2.19;68.84
17764;BME280;22245;52.832;13.816;2023-03-05T00:33:57;101218.00;;;2.21;67.96
17764;BME280;22245;52.832;13.816;2023-03-05T00:37:20;101221.47;;;2.22;67.75
17764;BME280;22245;52.832;13.816;2023-03-05T00:40:43;101205.72;;;2.22;68.14
17764;BME280;22245;52.832;13.816;2023-03-05T00:44:05;101208.19;;;2.25;68.29
17764;BME280;22245;52.832;13.816;2023-03-05T00:47:27;101199.28;;;2.29;69.31
17764;BME280;22245;52.832;13.816;2023-03-05T00:50:49;101185.28;;;2.28;69.23
17764;BME280;22245;52.832;13.816;2023-03-05T00:54:11;101179.09;;;2.29;70.22
17764;BME280;22245;52.832;13.816;2023-03-05T00:57:34;101171.22;;;2.29;70.58
17764;BME280;22245;52.832;13.816;2023-03-05T01:00:57;101162.41;;;2.30;71.44
17764;BME280;22245;52.832;13.816;2023-03-05T01:04:19;101155.41;;;2.31;71.93
17764;BME280;22245;52.832;13.816;2023-03-05T01:07:41;101151.84;;;2.32;72.34
17764;BME280;22245;52.832;13.816;2023-03-05T01:11:04;101146.50;;;2.34;73.01
17764;BME280;22245;52.832;13.816;2023-03-05T01:14:28;101135.94;;;2.35;74.00
17764;BME280;22245;52.832;13.816;2023-03-05T01:17:49;101138.56;;;2.35;74.04
17764;BME280;22245;52.832;13.816;2023-03-05T01:21:11;101134.09;;;2.37;74.50
17764;BME280;22245;52.832;13.816;2023-03-05T01:24:33;101134.09;;;2.37;74.85
17764;BME280;22245;52.832;13.816;2023-03-05T01:27:55;101133.22;;;2.37;75.06
17764;BME280;22245;52.832;13.816;2023-03-05T01:31:18;101120.94;;;2.37;75.42
17764;BME280;22245;52.832;13.816;2023-03-05T01:34:40;101121.72;;;2.39;75.42
17764;BME280;22245;52.832;13.816;2023-03-05T01:38:02;101118.09;;;2.42;75.83
17764;BME280;22245;52.832;13.816;2023-03-05T01:41:24;101106.66;;;2.43;76.12
17764;BME280;22245;52.832;13.816;2023-03-05T01:44:59;101097.00;;;2.43;76.09
17764;BME280;22245;52.832;13.816;2023-03-05T01:48:23;101092.53;;;2.45;76.52
17764;BME280;22245;52.832;13.816;2023-03-05T01:51:52;101093.31;;;2.48;76.28
17764;BME280;22245;52.832;13.816;2023-03-05T01:55:20;101083.53;;;2.51;76.36
17764;BME280;22245;52.832;13.816;2023-03-05T01:58:43;101085.22;;;2.52;76.56
17764;BME280;22245;52.832;13.816;2023-03-05T02:02:05;101087.72;;;2.55;76.80
17764;BME280;22245;52.832;13.816;2023-03-05T02:05:31;101083.22;;;2.57;77.07
17764;BME280;22245;52.832;13.816;2023-03-05T02:08:53;101077.88;;;2.59;77.32
17764;BME280;22245;52.832;13.816;2023-03-05T02:12:15;101072.47;;;2.62;77.24
17764;BME280;22245;52.832;13.816;2023-03-05T02:15:37;101062.84;;;2.63;77.31
17764;BME280;22245;52.832;13.816;2023-03-05T02:19:00;101069.75;;;2.65;76.57
17764;BME280;22245;52.832;13.816;2023-03-05T02:22:23;101062.84;;;2.63;76.22
17764;BME280;22245;52.832;13.816;2023-03-05T02:25:45;101047.88;;;2.63;75.99
17764;BME280;22245;52.832;13.816;2023-03-05T02:29:08;101056.72;;;2.62;75.82
17764;BME280;22245;52.832;13.816;2023-03-05T02:32:30;101058.41;;;2.63;74.74
17764;BME280;22245;52.832;13.816;2023-03-05T02:35:52;101059.34;;;2.62;73.87
17764;BME280;22245;52.832;13.816;2023-03-05T02:39:16;101054.94;;;2.63;73.18
17764;BME280;22245;52.832;13.816;2023-03-05T02:42:38;101054.06;;;2.62;71.88
17764;BME280;22245;52.832;13.816;2023-03-05T02:46:00;101048.13;;;2.58;69.71
17764;BME280;22245;52.832;13.816;2023-03-05T02:49:22;101043.94;;;2.54;68.73
17764;BME280;22245;52.832;13.816;2023-03-05T02:52:44;101046.63;;;2.53;69.14
17764;BME280;22245;52.832;13.816;2023-03-05T02:56:09;101040.09;;;2.42;66.75
17764;BME280;22245;52.832;13.816;2023-03-05T02:59:30;101049.06;;;2.38;67.39
17764;BME280;22245;52.832;13.816;2023-03-05T03:02:52;101041.03;;;2.41;67.02
17764;BME280;22245;52.832;13.816;2023-03-05T03:06:14;101034.84;;;2.42;66.75
17764;BME280;22245;52.832;13.816;2023-03-05T03:09:36;101028.66;;;2.43;66.58
17764;BME280;22245;52.832;13.816;2023-03-05T03:12:59;101029.59;;;2.42;65.96
17764;BME280;22245;52.832;13.816;2023-03-05T03:16:20;101029.63;;;2.41;65.60
17764;BME280;22245;52.832;13.816;2023-03-05T03:19:43;101021.75;;;2.41;65.23
17764;BME280;22245;52.832;13.816;2023-03-05T03:23:04;101028.72;;;2.42;65.05
17764;BME280;22245;52.832;13.816;2023-03-05T03:26:27;101013.88;;;2.41;64.60
17764;BME280;22245;52.832;13.816;2023-03-05T03:29:51;101015.66;;;2.40;64.08
17764;BME280;22245;52.832;13.816;2023-03-05T03:33:13;101014.72;;;2.41;63.87
17764;BME280;22245;52.832;13.816;2023-03-05T03:36:37;101009.47;;;2.41;63.76
17764;BME280;22245;52.832;13.816;2023-03-05T03:39:59;101002.56;;;2.39;63.43
17764;BME280;22245;52.832;13.816;2023-03-05T03:43:21;100996.34;;;2.41;63.97
17764;BME280;22245;52.832;13.816;2023-03-05T03:46:46;100996.25;;;2.43;63.26
17764;BME280;22245;52.832;13.816;2023-03-05T03:50:09;100993.69;;;2.41;63.41
17764;BME280;22245;52.832;13.816;2023-03-05T03:53:31;100989.38;;;2.40;63.63
17764;BME280;22245;52.832;13.816;2023-03-05T03:56:52;100983.19;;;2.41;63.86
17764;BME280;22245;52.832;13.816;2023-03-05T04:00:15;100984.13;;;2.40;63.53
17764;BME280;22245;52.832;13.816;2023-03-05T04:03:38;100977.16;;;2.39;63.57
17764;BME280;22245;52.832;13.816;2023-03-05T04:07:00;100978.91;;;2.39;63.93
17764;BME280;22245;52.832;13.816;2023-03-05T04:10:22;100979.84;;;2.38;63.62
17764;BME280;22245;52.832;13.816;2023-03-05T04:13:43;100976.44;;;2.36;63.11
17764;BME280;22245;52.832;13.816;2023-03-05T04:17:05;100964.31;;;2.33;63.42
17764;BME280;22245;52.832;13.816;2023-03-05T04:20:28;100971.56;;;2.28;63.62
17764;BME280;22245;52.832;13.816;2023-03-05T04:23:49;100975.06;;;2.27;63.54
17764;BME280;22245;52.832;13.816;2023-03-05T04:27:11;100965.38;;;2.29;63.69
17764;BME280;22245;52.832;13.816;2023-03-05T04:30:33;100963.69;;;2.28;63.89
17764;BME280;22245;52.832;13.816;2023-03-05T04:33:54;100964.56;;;2.27;63.75
17764;BME280;22245;52.832;13.816;2023-03-05T04:37:17;100957.59;;;2.26;63.48
17764;BME280;22245;52.832;13.816;2023-03-05T04:40:39;100958.41;;;2.28;63.91
17764;BME280;22245;52.832;13.816;2023-03-05T04:44:00;100956.63;;;2.28;64.17
17764;BME280;22245;52.832;13.816;2023-03-05T04:47:22;100948.78;;;2.27;63.43
17764;BME280;22245;52.832;13.816;2023-03-05T04:50:44;100946.47;;;2.21;64.00
17764;BME280;22245;52.832;13.816;2023-03-05T04:54:07;100947.34;;;2.21;64.28
17764;BME280;22245;52.832;13.816;2023-03-05T04:57:28;100943.78;;;2.22;64.50
17764;BME280;22245;52.832;13.816;2023-03-05T05:00:50;100933.13;;;2.25;65.28
17764;BME280;22245;52.832;13.816;2023-03-05T05:04:12;100935.66;;;2.27;65.19
17764;BME280;22245;52.832;13.816;2023-03-05T05:07:34;100934.75;;;2.28;65.35
17764;BME280;22245;52.832;13.816;2023-03-05T05:10:59;100932.00;;;2.31;65.71
17764;BME280;22245;52.832;13.816;2023-03-05T05:14:21;100933.69;;;2.32;65.27
17764;BME280;22245;52.832;13.816;2023-03-05T05:17:43;100931.13;;;2.30;65.54
17764;BME280;22245;52.832;13.816;2023-03-05T05:21:10;100932.13;;;2.28;65.10
17764;BME280;22245;52.832;13.816;2023-03-05T05:24:32;100931.41;;;2.24;65.39
17764;BME280;22245;52.832;13.816;2023-03-05T05:27:55;100933.94;;;2.26;65.93
17764;BME280;22245;52.832;13.816;2023-03-05T05:31:18;100927.00;;;2.25;66.15
17764;BME280;22245;52.832;13.816;2023-03-05T05:34:40;100929.78;;;2.22;65.87
17764;BME280;22245;52.832;13.816;2023-03-05T05:38:02;100921.09;;;2.20;66.11
17764;BME280;22245;52.832;13.816;2023-03-05T05:41:24;100928.00;;;2.22;66.43
17764;BME280;22245;52.832;13.816;2023-03-05T05:44:47;100927.16;;;2.22;66.57
17764;BME280;22245;52.832;13.816;2023-03-05T05:48:09;100931.41;;;2.24;66.75
17764;BME280;22245;52.832;13.816;2023-03-05T05:51:31;100939.34;;;2.23;66.64
17764;BME280;22245;52.832;13.816;2023-03-05T05:54:53;100931.63;;;2.20;67.13
17764;BME280;22245;52.832;13.816;2023-03-05T05:58:15;100927.22;;;2.20;67.02
17764;BME280;22245;52.832;13.816;2023-03-05T06:01:38;100929.91;;;2.19;67.21
17764;BME280;22245;52.832;13.816;2023-03-05T06:05:00;100937.13;;;2.15;66.99
17764;BME280;22245;52.832;13.816;2023-03-05T06:08:21;100934.41;;;2.16;67.39
17764;BME280;22245;52.832;13.816;2023-03-05T06:11:43;100926.66;;;2.13;67.43
17764;BME280;22245;52.832;13.816;2023-03-05T06:15:06;100931.13;;;2.11;67.52
17764;BME280;22245;52.832;13.816;2023-03-05T06:18:29;100931.91;;;2.13;67.74
17764;BME280;22245;52.832;13.816;2023-03-05T06:21:52;100933.47;;;2.17;67.59
17764;BME280;22245;52.832;13.816;2023-03-05T06:25:14;100936.09;;;2.17;67.47
17764;BME280;22245;52.832;13.816;2023-03-05T06:28:36;100934.69;;;2.10;67.50
17764;BME280;22245;52.832;13.816;2023-03-05T06:31:57;100936.53;;;2.08;67.65
17764;BME280;22245;52.832;13.816;2023-03-05T06:35:21;100938.28;;;2.08;67.81
17764;BME280;22245;52.832;13.816;2023-03-05T06:38:43;100938.38;;;2.06;67.79
17764;BME280;22245;52.832;13.816;2023-03-05T06:42:06;100941.00;;;2.06;68.43
17764;BME280;22245;52.832;13.816;2023-03-05T06:45:28;100937.59;;;2.04;68.35
17764;BME280;22245;52.832;13.816;2023-03-05T06:48:49;100933.03;;;2.08;68.37
17764;BME280;22245;52.832;13.816;2023-03-05T06:52:13;100935.81;;;2.05;68.34
17764;BME280;22245;52.832;13.816;2023-03-05T06:55:35;100930.84;;;1.98;68.79
17764;BME280;22245;52.832;13.816;2023-03-05T06:58:59;100922.00;;;2.01;69.20
17764;BME280;22245;52.832;13.816;2023-03-05T07:02:21;100925.41;;;2.03;69.14
17764;BME280;22245;52.832;13.816;2023-03-05T07:05:43;100925.41;;;2.03;69.56
17764;BME280;22245;52.832;13.816;2023-03-05T07:09:08;100929.88;;;2.01;69.49
17764;BME280;22245;52.832;13.816;2023-03-05T07:12:31;100939.50;;;2.00;69.68
17764;BME280;22245;52.832;13.816;2023-03-05T07:15:53;100938.53;;;2.03;69.70
17764;BME280;22245;52.832;13.816;2023-03-05T07:19:15;100933.19;;;2.05;70.07
17764;BME280;22245;52.832;13.816;2023-03-05T07:22:36;100934.97;;;2.04;69.09
17764;BME280;22245;52.832;13.816;2023-03-05T07:26:01;100949.72;;;2.07;69.76
17764;BME280;22245;52.832;13.816;2023-03-05T07:29:24;100940.22;;;2.04;68.85
17764;BME280;22245;52.832;13.816;2023-03-05T07:32:46;100938.69;;;2.00;68.98
17764;BME280;22245;52.832;13.816;2023-03-05T07:36:08;100941.22;;;2.01;68.80
17764;BME280;22245;52.832;13.816;2023-03-05T07:39:30;100950.59;;;2.07;68.63
17764;BME280;22245;52.832;13.816;2023-03-05T07:42:53;100939.38;;;2.03;68.44
17764;BME280;22245;52.832;13.816;2023-03-05T07:46:25;100939.16;;;2.08;68.30
17764;BME280;22245;52.832;13.816;2023-03-05T07:49:48;100944.38;;;2.10;68.15
17764;BME280;22245;52.832;13.816;2023-03-05T07:53:10;100944.06;;;2.16;68.15
17764;BME280;22245;52.832;13.816;2023-03-05T07:56:34;100948.31;;;2.19;67.04
17764;BME280;22245;52.832;13.816;2023-03-05T07:59:57;100942.28;;;2.16;66.56
17764;BME280;22245;52.832;13.816;2023-03-05T08:03:19;100950.59;;;2.07;65.70
17764;BME280;22245;52.832;13.816;2023-03-05T08:06:41;100942.78;;;2.06;66.82
17764;BME280;22245;52.832;13.816;2023-03-05T08:10:03;100948.91;;;2.06;65.91
17764;BME280;22245;52.832;13.816;2023-03-05T08:13:26;100945.19;;;2.10;65.62
17764;BME280;22245;52.832;13.816;2023-03-05T08:16:49;100955.72;;;2.10;65.26
17764;BME280;22245;52.832;13.816;2023-03-05T08:20:12;100946.25;;;2.06;65.01
17764;BME280;22245;52.832;13.816;2023-03-05T08:23:34;100944.84;;;1.99;65.47
17764;BME280;22245;52.832;13.816;2023-03-05T08:26:56;100953.50;;;2.01;65.47
17764;BME280;22245;52.832;13.816;2023-03-05T08:30:19;100949.72;;;2.07;65.46
17764;BME280;22245;52.832;13.816;2023-03-05T08:33:47;100943.63;;;2.06;65.59
17764;BME280;22245;52.832;13.816;2023-03-05T08:37:09;100936.25;;;2.14;64.60
17764;BME280;22245;52.832;13.816;2023-03-05T08:40:31;100950.41;;;2.12;64.87
17764;BME280;22245;52.832;13.816;2023-03-05T08:43:54;100945.78;;;2.17;64.77
17764;BME280;22245;52.832;13.816;2023-03-05T08:47:16;100946.69;;;2.16;64.47
17764;BME280;22245;52.832;13.816;2023-03-05T08:50:40;100936.47;;;2.10;64.87
17764;BME280;22245;52.832;13.816;2023-03-05T08:54:02;100937.16;;;2.13;64.81
17764;BME280;22245;52.832;13.816;2023-03-05T08:57:26;100935.56;;;2.11;64.50
17764;BME280;22245;52.832;13.816;2023-03-05T09:00:48;100940.88;;;2.09;64.67
17764;BME280;22245;52.832;13.816;2023-03-05T09:04:10;100938.81;;;2.16;64.52
17764;BME280;22245;52.832;13.816;2023-03-05T09:07:33;100932.50;;;2.20;65.23
17764;BME280;22245;52.832;13.816;2023-03-05T09:10:57;100938.59;;;2.21;64.70
17764;BME280;22245;52.832;13.816;2023-03-05T09:14:19;100947.09;;;2.26;64.13
17764;BME280;22245;52.832;13.816;2023-03-05T09:17:43;100932.03;;;2.29;64.13
17764;BME280;22245;52.832;13.816;2023-03-05T09:21:06;100940.41;;;2.38;64.03
17764;BME280;22245;52.832;13.816;2023-03-05T09:24:30;100933.41;;;2.38;63.82
17764;BME280;22245;52.832;13.816;2023-03-05T09:27:51;100928.63;;;2.46;64.61
17764;BME280;22245;52.832;13.816;2023-03-05T09:31:13;100916.25;;;2.49;63.73
17764;BME280;22245;52.832;13.816;2023-03-05T09:34:35;100922.28;;;2.51;63.54
17764;BME280;22245;52.832;13.816;2023-03-05T09:37:57;100918.25;;;2.43;63.78
17764;BME280;22245;52.832;13.816;2023-03-05T09:41:29;100917.88;;;2.51;63.96
17764;BME280;22245;52.832;13.816;2023-03-05T09:45:06;100910.22;;;2.46;63.05
17764;BME280;22245;52.832;13.816;2023-03-05T09:48:45;100922.56;;;2.44;61.75
17764;BME280;22245;52.832;13.816;2023-03-05T09:52:15;100907.63;;;2.45;62.41
17764;BME280;22245;52.832;13.816;2023-03-05T09:55:39;100909.44;;;2.44;61.14
17764;BME280;22245;52.832;13.816;2023-03-05T09:59:16;100920.41;;;2.35;61.37
17764;BME280;22245;52.832;13.816;2023-03-05T10:02:44;100912.38;;;2.38;61.75
17764;BME280;22245;52.832;13.816;2023-03-05T10:06:14;100903.31;;;2.44;62.11
17764;BME280;22245;52.832;13.816;2023-03-05T10:09:42;100896.13;;;2.48;62.29
17764;BME280;22245;52.832;13.816;2023-03-05T10:13:12;100903.66;;;2.55;61.45
17764;BME280;22245;52.832;13.816;2023-03-05T10:16:53;100897.31;;;2.59;61.11
17764;BME280;22245;52.832;13.816;2023-03-05T10:20:32;100897.38;;;2.58;61.58
17764;BME280;22245;52.832;13.816;2023-03-05T10:24:01;100886.56;;;2.64;60.32
17764;BME280;22245;52.832;13.816;2023-03-05T10:27:32;100888.28;;;2.65;59.13
17764;BME280;22245;52.832;13.816;2023-03-05T10:31:05;100880.47;;;2.64;58.58
17764;BME280;22245;52.832;13.816;2023-03-05T10:34:43;100890.00;;;2.66;58.34
17764;BME280;22245;52.832;13.816;2023-03-05T10:38:20;100882.72;;;2.71;58.39
17764;BME280;22245;52.832;13.816;2023-03-05T10:41:50;100894.63;;;2.79;57.62
17764;BME280;22245;52.832;13.816;2023-03-05T10:45:17;100878.91;;;2.77;57.86
17764;BME280;22245;52.832;13.816;2023-03-05T10:48:44;100888.44;;;2.80;55.43
17764;BME280;22245;52.832;13.816;2023-03-05T10:52:12;100877.28;;;2.74;54.67
17764;BME280;22245;52.832;13.816;2023-03-05T10:55:37;100878.06;;;2.77;54.96
17764;BME280;22245;52.832;13.816;2023-03-05T10:58:59;100885.88;;;2.78;55.13
17764;BME280;22245;52.832;13.816;2023-03-05T11:02:21;100883.03;;;2.65;55.89
17764;BME280;22245;52.832;13.816;2023-03-05T11:05:45;100875.81;;;2.69;56.26
17764;BME280;22245;52.832;13.816;2023-03-05T11:09:27;100874.13;;;2.68;56.78
17764;BME280;22245;52.832;13.816;2023-03-05T11:12:51;100870.72;;;2.66;57.34
17764;BME280;22245;52.832;13.816;2023-03-05T11:16:17;100873.28;;;2.67;57.20
17764;BME280;22245;52.832;13.816;2023-03-05T11:19:40;100871.47;;;2.68;57.08
17764;BME280;22245;52.832;13.816;2023-03-05T11:23:04;100859.81;;;2.73;57.65
17764;BME280;22245;52.832;13.816;2023-03-05T11:26:29;100869.63;;;2.70;57.43
17764;BME280;22245;52.832;13.816;2023-03-05T11:29:50;100859.19;;;2.68;57.69
17764;BME280;22245;52.832;13.816;2023-03-05T11:33:15;100855.72;;;2.68;57.52
17764;BME280;22245;52.832;13.816;2023-03-05T11:36:40;100854.56;;;2.73;57.57
17764;BME280;22245;52.832;13.816;2023-03-05T11:40:17;100853.63;;;2.74;57.74
17764;BME280;22245;52.832;13.816;2023-03-05T11:43:42;100848.97;;;2.80;57.12
17764;BME280;22245;52.832;13.816;2023-03-05T11:47:15;100843.94;;;2.75;57.55
17764;BME280;22245;52.832;13.816;2023-03-05T11:50:40;100841.88;;;2.82;55.81
17764;BME280;22245;52.832;13.816;2023-03-05T11:54:09;100841.09;;;2.80;55.65
17764;BME280;22245;52.832;13.816;2023-03-05T11:57:39;100846.81;;;2.70;55.60
17764;BME280;22245;52.832;13.816;2023-03-05T12:01:05;100838.63;;;2.77;55.05
17764;BME280;22245;52.832;13.816;2023-03-05T12:04:33;100839.78;;;2.71;54.71
17764;BME280;22245;52.832;13.816;2023-03-05T12:07:57;100831.22;;;2.67;55.42
17764;BME280;22245;52.832;13.816;2023-03-05T12:11:21;100827.50;;;2.71;55.63
17764;BME280;22245;52.832;13.816;2023-03-05T12:14:49;100817.97;;;2.69;54.89
17764;BME280;22245;52.832;13.816;2023-03-05T12:18:22;100812.38;;;2.75;55.60
17764;BME280;22245;52.832;13.816;2023-03-05T12:21:48;100810.28;;;2.82;54.32
17764;BME280;22245;52.832;13.816;2023-03-05T12:25:23;100815.06;;;2.91;53.86
17764;BME280;22245;52.832;13.816;2023-03-05T12:28:56;100812.22;;;2.96;54.14
17764;BME280;22245;52.832;13.816;2023-03-05T12:36:37;100789.97;;;3.01;53.31
17764;BME280;22245;52.832;13.816;2023-03-05T12:40:01;100799.28;;;3.09;53.49
17764;BME280;22245;52.832;13.816;2023-03-05T12:43:28;100787.47;;;3.16;53.05
17764;BME280;22245;52.832;13.816;2023-03-05T12:47:15;100785.63;;;3.18;52.62
17764;BME280;22245;52.832;13.816;2023-03-05T12:50:49;100784.28;;;3.27;52.97
17764;BME280;22245;52.832;13.816;2023-03-05T12:54:29;100783.56;;;3.23;52.00
17764;BME280;22245;52.832;13.816;2023-03-05T12:57:55;100785.81;;;3.31;52.52
17764;BME280;22245;52.832;13.816;2023-03-05T13:01:32;100784.19;;;3.28;51.48
17764;BME280;22245;52.832;13.816;2023-03-05T13:04:59;100783.81;;;3.18;51.44
17764;BME280;22245;52.832;13.816;2023-03-05T13:08:22;100774.06;;;3.21;50.94
17764;BME280;22245;52.832;13.816;2023-03-05T13:11:49;100779.16;;;3.08;50.96
17764;BME280;22245;52.832;13.816;2023-03-05T13:15:13;100778.38;;;3.06;51.78
17764;BME280;22245;52.832;13.816;2023-03-05T13:18:38;100776.91;;;3.00;51.76
17764;BME280;22245;52.832;13.816;2023-03-05T13:22:03;100768.78;;;3.04;51.40
17764;BME280;22245;52.832;13.816;2023-03-05T13:25:30;100773.44;;;3.15;51.02
17764;BME280;22245;52.832;13.816;2023-03-05T13:29:11;100767.34;;;3.15;50.42
17764;BME280;22245;52.832;13.816;2023-03-05T13:32:33;100764.22;;;3.24;51.14
17764;BME280;22245;52.832;13.816;2023-03-05T13:35:55;100749.88;;;3.30;50.81
17764;BME280;22245;52.832;13.816;2023-03-05T13:39:19;100762.19;;;3.29;50.25
17764;BME280;22245;52.832;13.816;2023-03-05T13:42:42;100761.84;;;3.36;50.33
17764;BME280;22245;52.832;13.816;2023-03-05T13:46:05;100761.84;;;3.36;50.15
17764;BME280;22245;52.832;13.816;2023-03-05T13:49:27;100766.78;;;3.26;50.05
17764;BME280;22245;52.832;13.816;2023-03-05T13:52:48;100767.44;;;3.29;49.45
17764;BME280;22245;52.832;13.816;2023-03-05T13:56:18;100756.50;;;3.21;49.31
17764;BME280;22245;52.832;13.816;2023-03-05T13:59:51;100754.22;;;3.31;49.81
17764;BME280;22245;52.832;13.816;2023-03-05T14:03:22;100752.06;;;3.38;50.32
17764;BME280;22245;52.832;13.816;2023-03-05T14:06:47;100746.91;;;3.36;49.41
17764;BME280;22245;52.832;13.816;2023-03-05T14:10:27;100746.22;;;3.32;48.86
17764;BME280;22245;52.832;13.816;2023-03-05T14:13:59;100730.69;;;3.28;49.75
17764;BME280;22245;52.832;13.816;2023-03-05T14:17:35;100724.50;;;3.29;49.13
17764;BME280;22245;52.832;13.816;2023-03-05T14:21:02;100725.44;;;3.28;49.26
17764;BME280;22245;52.832;13.816;2023-03-05T14:24:25;100722.53;;;3.32;49.22
17764;BME280;22245;52.832;13.816;2023-03-05T14:27:50;100712.44;;;3.25;47.82
17764;BME280;22245;52.832;13.816;2023-03-05T14:31:15;100707.50;;;3.18;47.46
17764;BME280;22245;52.832;13.816;2023-03-05T14:34:39;100711.56;;;3.24;49.09
17764;BME280;22245;52.832;13.816;2023-03-05T14:38:03;100707.06;;;3.26;48.61
17764;BME280;22245;52.832;13.816;2023-03-05T14:41:34;100701.56;;;3.31;49.25
17764;BME280;22245;52.832;13.816;2023-03-05T14:44:58;100704.78;;;3.36;49.52
17764;BME280;22245;52.832;13.816;2023-03-05T14:48:20;100705.72;;;3.35;49.54
17764;BME280;22245;52.832;13.816;2023-03-05T14:51:43;100704.50;;;3.41;49.60
17764;BME280;22245;52.832;13.816;2023-03-05T14:55:13;100702.81;;;3.40;49.26
17764;BME280;22245;52.832;13.816;2023-03-05T14:58:35;100700.88;;;3.43;49.01
17764;BME280;22245;52.832;13.816;2023-03-05T15:01:57;100700.03;;;3.43;49.44
17764;BME280;22245;52.832;13.816;2023-03-05T15:05:19;100690.59;;;3.39;48.94
17764;BME280;22245;52.832;13.816;2023-03-05T15:08:42;100683.56;;;3.39;49.15
17764;BME280;22245;52.832;13.816;2023-03-05T15:12:05;100680.81;;;3.41;49.40
17764;BME280;22245;52.832;13.816;2023-03-05T15:15:27;100684.31;;;3.41;49.80
17764;BME280;22245;52.832;13.816;2023-03-05T15:18:48;100684.84;;;3.48;50.12
17764;BME280;22245;52.832;13.816;2023-03-05T15:22:11;100685.59;;;3.50;49.73
17764;BME280;22245;52.832;13.816;2023-03-05T15:25:33;100677.59;;;3.52;50.59
17764;BME280;22245;52.832;13.816;2023-03-05T15:28:56;100679.22;;;3.54;49.86
17764;BME280;22245;52.832;13.816;2023-03-05T15:32:18;100679.22;;;3.54;49.17
17764;BME280;22245;52.832;13.816;2023-03-05T15:35:40;100676.75;;;3.51;50.09
17764;BME280;22245;52.832;13.816;2023-03-05T15:39:02;100669.78;;;3.50;49.74
17764;BME280;22245;52.832;13.816;2023-03-05T15:42:24;100670.44;;;3.54;50.24
17764;BME280;22245;52.832;13.816;2023-03-05T15:45:47;100664.34;;;3.53;50.29
17764;BME280;22245;52.832;13.816;2023-03-05T15:49:09;100660.03;;;3.52;49.49
17764;BME280;22245;52.832;13.816;2023-03-05T15:52:31;100662.66;;;3.52;50.08
17764;BME280;22245;52.832;13.816;2023-03-05T15:55:53;100666.03;;;3.54;50.03
17764;BME280;22245;52.832;13.816;2023-03-05T15:59:14;100660.78;;;3.54;50.23
17764;BME280;22245;52.832;13.816;2023-03-05T16:02:38;100657.03;;;3.58;49.71
17764;BME280;22245;52.832;13.816;2023-03-05T16:06:00;100651.94;;;3.55;49.98
17764;BME280;22245;52.832;13.816;2023-03-05T16:09:25;100643.28;;;3.53;50.12
17764;BME280;22245;52.832;13.816;2023-03-05T16:12:54;100637.06;;;3.54;49.83
17764;BME280;22245;52.832;13.816;2023-03-05T16:16:17;100638.59;;;3.58;49.56
17764;BME280;22245;52.832;13.816;2023-03-05T16:19:41;100639.72;;;3.54;47.48
17764;BME280;22245;52.832;13.816;2023-03-05T16:23:04;100639.88;;;3.51;47.77
17764;BME280;22245;52.832;13.816;2023-03-05T16:26:26;100638.03;;;3.53;47.60
17764;BME280;22245;52.832;13.816;2023-03-05T16:29:48;100634.53;;;3.53;48.49
17764;BME280;22245;52.832;13.816;2023-03-05T16:33:10;100644.13;;;3.54;47.68
17764;BME280;22245;52.832;13.816;2023-03-05T16:36:34;100644.22;;;3.52;47.17
17764;BME280;22245;52.832;13.816;2023-03-05T16:39:57;100639.88;;;3.51;47.80
17764;BME280;22245;52.832;13.816;2023-03-05T16:43:19;100651.25;;;3.52;47.09
17764;BME280;22245;52.832;13.816;2023-03-05T16:46:41;100642.78;;;3.46;46.72
17764;BME280;22245;52.832;13.816;2023-03-05T16:50:09;100642.03;;;3.44;46.66
17764;BME280;22245;52.832;13.816;2023-03-05T16:53:33;100642.13;;;3.43;46.14
17764;BME280;22245;52.832;13.816;2023-03-05T16:56:55;100647.38;;;3.43;46.42
17764;BME280;22245;52.832;13.816;2023-03-05T17:00:20;100650.03;;;3.43;46.62
17764;BME280;22245;52.832;13.816;2023-03-05T17:03:44;100652.66;;;3.43;46.76
17764;BME280;22245;52.832;13.816;2023-03-05T17:07:07;100658.56;;;3.46;46.94
17764;BME280;22245;52.832;13.816;2023-03-05T17:10:30;100655.09;;;3.46;47.57
17764;BME280;22245;52.832;13.816;2023-03-05T17:13:52;100652.31;;;3.49;47.03
17764;BME280;22245;52.832;13.816;2023-03-05T17:17:14;100654.00;;;3.50;47.83
17764;BME280;22245;52.832;13.816;2023-03-05T17:20:36;100660.09;;;3.51;48.25
17764;BME280;22245;52.832;13.816;2023-03-05T17:23:58;100647.88;;;3.50;48.64
17764;BME280;22245;52.832;13.816;2023-03-05T17:27:21;100648.91;;;3.47;48.44
17764;BME280;22245;52.832;13.816;2023-03-05T17:30:43;100644.47;;;3.47;48.13
17764;BME280;22245;52.832;13.816;2023-03-05T17:34:05;100648.03;;;3.46;48.31
17764;BME280;22245;52.832;13.816;2023-03-05T17:37:27;100642.78;;;3.46;48.82
17764;BME280;22245;52.832;13.816;2023-03-05T17:40:49;100646.44;;;3.44;48.74
17764;BME280;22245;52.832;13.816;2023-03-05T17:44:12;100640.44;;;3.42;48.96
17764;BME280;22245;52.832;13.816;2023-03-05T17:47:34;100638.69;;;3.41;49.11
17764;BME280;22245;52.832;13.816;2023-03-05T17:50:57;100633.53;;;3.39;49.74